sensor_id;sensor_type;location;lat;lon;timestamp;temperature;humidity
53776;DHT22;44276;49.534;6.378;2024-03-22T00:00:40;9.00;99.90
53776;DHT22;44276;49.534;6.378;2024-03-22T00:03:06;9.00;99.90
53776;DHT22;44276;49.534;6.378;2024-03-22T00:05:33;8.90;99.90
53776;DHT22;44276;49.534;6.378;2024-03-22T00:07:59;9.00;99.90
53776;DHT22;44276;49.534;6.378;2024-03-22T00:10:27;8.90;99.90
53776;DHT22;44276;49.534;6.378;2024-03-22T00:12:53;8.90;99.90
53776;DHT22;44276;49.534;6.378;2024-03-22T00:15:21;8.90;99.90
53776;DHT22;44276;49.534;6.378;2024-03-22T00:17:48;9.00;99.90
53776;DHT22;44276;49.534;6.378;2024-03-22T00:20:15;8.90;99.90
53776;DHT22;44276;49.534;6.378;2024-03-22T00:22:41;8.90;99.90
53776;DHT22;44276;49.534;6.378;2024-03-22T00:25:09;9.00;99.90
53776;DHT22;44276;49.534;6.378;2024-03-22T00:27:35;9.00;99.90
53776;DHT22;44276;49.534;6.378;2024-03-22T00:30:02;9.00;99.90
53776;DHT22;44276;49.534;6.378;2024-03-22T00:32:31;9.00;99.90
53776;DHT22;44276;49.534;6.378;2024-03-22T00:34:58;9.00;99.90
53776;DHT22;44276;49.534;6.378;2024-03-22T00:37:25;9.00;99.90
53776;DHT22;44276;49.534;6.378;2024-03-22T00:39:51;9.00;99.90
53776;DHT22;44276;49.534;6.378;2024-03-22T00:42:18;9.00;99.90
53776;DHT22;44276;49.534;6.378;2024-03-22T00:44:44;9.00;99.90
53776;DHT22;44276;49.534;6.378;2024-03-22T00:47:11;9.00;99.90
53776;DHT22;44276;49.534;6.378;2024-03-22T00:49:39;8.90;99.90
53776;DHT22;44276;49.534;6.378;2024-03-22T00:52:06;8.90;99.90
53776;DHT22;44276;49.534;6.378;2024-03-22T00:54:32;8.80;99.90
53776;DHT22;44276;49.534;6.378;2024-03-22T00:57:00;8.90;99.90
53776;DHT22;44276;49.534;6.378;2024-03-22T00:59:27;8.90;99.90
53776;DHT22;44276;49.534;6.378;2024-03-22T01:01:54;8.90;99.90
53776;DHT22;44276;49.534;6.378;2024-03-22T01:04:20;8.90;99.90
53776;DHT22;44276;49.534;6.378;2024-03-22T01:06:49;8.80;99.90
53776;DHT22;44276;49.534;6.378;2024-03-22T01:09:15;8.80;99.90
53776;DHT22;44276;49.534;6.378;2024-03-22T01:11:42;8.90;99.90
53776;DHT22;44276;49.534;6.378;2024-03-22T01:14:08;8.80;99.90
53776;DHT22;44276;49.534;6.378;2024-03-22T01:16:36;8.90;99.90
53776;DHT22;44276;49.534;6.378;2024-03-22T01:19:02;8.90;99.90
53776;DHT22;44276;49.534;6.378;2024-03-22T01:21:29;8.90;99.90
53776;DHT22;44276;49.534;6.378;2024-03-22T01:23:57;8.90;99.90
53776;DHT22;44276;49.534;6.378;2024-03-22T01:26:24;8.80;99.90
53776;DHT22;44276;49.534;6.378;2024-03-22T01:28:50;8.80;99.90
53776;DHT22;44276;49.534;6.378;2024-03-22T01:31:17;8.80;99.90
53776;DHT22;44276;49.534;6.378;2024-03-22T01:33:43;8.80;99.90
53776;DHT22;44276;49.534;6.378;2024-03-22T01:36:10;8.80;99.90
53776;DHT22;44276;49.534;6.378;2024-03-22T01:38:37;8.80;99.90
53776;DHT22;44276;49.534;6.378;2024-03-22T01:41:06;8.80;99.90
53776;DHT22;44276;49.534;6.378;2024-03-22T01:43:32;8.80;99.90
53776;DHT22;44276;49.534;6.378;2024-03-22T01:46:00;8.80;99.90
53776;DHT22;44276;49.534;6.378;2024-03-22T01:48:26;8.80;99.90
53776;DHT22;44276;49.534;6.378;2024-03-22T01:50:53;8.80;99.90
53776;DHT22;44276;49.534;6.378;2024-03-22T01:53:20;8.80;99.90
53776;DHT22;44276;49.534;6.378;2024-03-22T01:55:47;8.70;99.90
53776;DHT22;44276;49.534;6.378;2024-03-22T01:58:15;8.70;99.90
53776;DHT22;44276;49.534;6.378;2024-03-22T02:00:43;8.60;99.90
53776;DHT22;44276;49.534;6.378;2024-03-22T02:03:10;8.60;99.90
53776;DHT22;44276;49.534;6.378;2024-03-22T02:05:37;8.60;99.90
53776;DHT22;44276;49.534;6.378;2024-03-22T02:08:04;8.60;99.90
53776;DHT22;44276;49.534;6.378;2024-03-22T02:10:31;8.60;99.90
53776;DHT22;44276;49.534;6.378;2024-03-22T02:12:58;8.50;99.90
53776;DHT22;44276;49.534;6.378;2024-03-22T02:15:27;8.50;99.90
53776;DHT22;44276;49.534;6.378;2024-03-22T02:17:53;8.50;99.90
53776;DHT22;44276;49.534;6.378;2024-03-22T02:20:20;8.50;99.90
53776;DHT22;44276;49.534;6.378;2024-03-22T02:22:46;8.60;99.90
53776;DHT22;44276;49.534;6.378;2024-03-22T02:25:15;8.50;99.90
53776;DHT22;44276;49.534;6.378;2024-03-22T02:27:41;8.60;99.90
53776;DHT22;44276;49.534;6.378;2024-03-22T02:30:09;8.60;99.90
53776;DHT22;44276;49.534;6.378;2024-03-22T02:32:36;8.60;99.90
53776;DHT22;44276;49.534;6.378;2024-03-22T02:35:05;8.60;99.90
53776;DHT22;44276;49.534;6.378;2024-03-22T02:37:32;8.60;99.90
53776;DHT22;44276;49.534;6.378;2024-03-22T02:39:59;8.60;99.90
53776;DHT22;44276;49.534;6.378;2024-03-22T02:42:26;8.60;99.90
53776;DHT22;44276;49.534;6.378;2024-03-22T02:44:54;8.60;99.90
53776;DHT22;44276;49.534;6.378;2024-03-22T02:47:20;8.60;99.90
53776;DHT22;44276;49.534;6.378;2024-03-22T02:49:47;8.70;99.90
53776;DHT22;44276;49.534;6.378;2024-03-22T02:52:13;8.60;99.90
53776;DHT22;44276;49.534;6.378;2024-03-22T02:54:41;8.60;99.90
53776;DHT22;44276;49.534;6.378;2024-03-22T02:57:07;8.60;99.90
53776;DHT22;44276;49.534;6.378;2024-03-22T02:59:36;8.70;99.90
53776;DHT22;44276;49.534;6.378;2024-03-22T03:02:02;8.80;99.90
53776;DHT22;44276;49.534;6.378;2024-03-22T03:04:29;8.80;99.90
53776;DHT22;44276;49.534;6.378;2024-03-22T03:06:55;8.70;99.90
53776;DHT22;44276;49.534;6.378;2024-03-22T03:09:23;8.70;99.90
53776;DHT22;44276;49.534;6.378;2024-03-22T03:11:49;8.70;99.90
53776;DHT22;44276;49.534;6.378;2024-03-22T03:14:16;8.70;99.90
53776;DHT22;44276;49.534;6.378;2024-03-22T03:16:43;8.70;99.90
53776;DHT22;44276;49.534;6.378;2024-03-22T03:19:11;8.70;99.90
53776;DHT22;44276;49.534;6.378;2024-03-22T03:21:37;8.70;99.90
53776;DHT22;44276;49.534;6.378;2024-03-22T03:24:04;8.70;99.90
53776;DHT22;44276;49.534;6.378;2024-03-22T03:26:30;8.70;99.90
53776;DHT22;44276;49.534;6.378;2024-03-22T03:28:58;8.70;99.90
53776;DHT22;44276;49.534;6.378;2024-03-22T03:31:24;8.70;99.90
53776;DHT22;44276;49.534;6.378;2024-03-22T03:33:52;8.70;99.90
53776;DHT22;44276;49.534;6.378;2024-03-22T03:36:18;8.70;99.90
53776;DHT22;44276;49.534;6.378;2024-03-22T03:38:46;8.70;99.90
53776;DHT22;44276;49.534;6.378;2024-03-22T03:41:12;8.70;99.90
53776;DHT22;44276;49.534;6.378;2024-03-22T03:43:39;8.80;99.90
53776;DHT22;44276;49.534;6.378;2024-03-22T03:46:05;8.80;99.90
53776;DHT22;44276;49.534;6.378;2024-03-22T03:48:32;8.80;99.90
53776;DHT22;44276;49.534;6.378;2024-03-22T03:51:00;8.80;99.90
53776;DHT22;44276;49.534;6.378;2024-03-22T03:53:29;8.80;99.90
53776;DHT22;44276;49.534;6.378;2024-03-22T03:55:55;8.70;99.90
53776;DHT22;44276;49.534;6.378;2024-03-22T03:58:22;8.70;99.90
53776;DHT22;44276;49.534;6.378;2024-03-22T04:00:49;8.60;99.90
53776;DHT22;44276;49.534;6.378;2024-03-22T04:03:16;8.50;99.90
53776;DHT22;44276;49.534;6.378;2024-03-22T04:05:42;8.50;99.90
53776;DHT22;44276;49.534;6.378;2024-03-22T04:08:11;8.50;99.90
53776;DHT22;44276;49.534;6.378;2024-03-22T04:10:37;8.50;99.90
53776;DHT22;44276;49.534;6.378;2024-03-22T04:13:05;8.50;99.90
53776;DHT22;44276;49.534;6.378;2024-03-22T04:15:34;8.50;99.90
53776;DHT22;44276;49.534;6.378;2024-03-22T04:18:01;8.50;99.90
53776;DHT22;44276;49.534;6.378;2024-03-22T04:20:29;8.30;99.90
53776;DHT22;44276;49.534;6.378;2024-03-22T04:22:56;8.20;99.90
53776;DHT22;44276;49.534;6.378;2024-03-22T04:25:23;8.10;99.90
53776;DHT22;44276;49.534;6.378;2024-03-22T04:27:51;8.10;99.90
53776;DHT22;44276;49.534;6.378;2024-03-22T04:30:17;8.10;99.90
53776;DHT22;44276;49.534;6.378;2024-03-22T04:32:46;8.10;99.90
53776;DHT22;44276;49.534;6.378;2024-03-22T04:35:12;8.00;99.90
53776;DHT22;44276;49.534;6.378;2024-03-22T04:37:40;7.90;99.90
53776;DHT22;44276;49.534;6.378;2024-03-22T04:40:08;7.90;99.90
53776;DHT22;44276;49.534;6.378;2024-03-22T04:42:37;7.90;99.90
53776;DHT22;44276;49.534;6.378;2024-03-22T04:45:04;7.90;99.90
53776;DHT22;44276;49.534;6.378;2024-03-22T04:47:32;8.00;99.90
53776;DHT22;44276;49.534;6.378;2024-03-22T04:49:59;7.90;99.90
53776;DHT22;44276;49.534;6.378;2024-03-22T04:52:26;7.90;99.90
53776;DHT22;44276;49.534;6.378;2024-03-22T04:54:53;7.90;99.90
53776;DHT22;44276;49.534;6.378;2024-03-22T04:57:20;7.90;99.90
53776;DHT22;44276;49.534;6.378;2024-03-22T04:59:48;8.00;99.90
53776;DHT22;44276;49.534;6.378;2024-03-22T05:02:17;8.10;99.90
53776;DHT22;44276;49.534;6.378;2024-03-22T05:04:43;8.10;99.90
53776;DHT22;44276;49.534;6.378;2024-03-22T05:07:11;8.10;99.90
53776;DHT22;44276;49.534;6.378;2024-03-22T05:09:37;8.10;99.90
53776;DHT22;44276;49.534;6.378;2024-03-22T05:12:05;8.20;99.90
53776;DHT22;44276;49.534;6.378;2024-03-22T05:14:32;8.20;99.90
53776;DHT22;44276;49.534;6.378;2024-03-22T05:17:03;8.30;99.90
53776;DHT22;44276;49.534;6.378;2024-03-22T05:19:29;8.30;99.90
53776;DHT22;44276;49.534;6.378;2024-03-22T05:21:57;8.40;99.90
53776;DHT22;44276;49.534;6.378;2024-03-22T05:24:23;8.30;99.90
53776;DHT22;44276;49.534;6.378;2024-03-22T05:26:51;8.40;99.90
53776;DHT22;44276;49.534;6.378;2024-03-22T05:29:18;8.60;99.90
53776;DHT22;44276;49.534;6.378;2024-03-22T05:31:47;8.40;99.90
53776;DHT22;44276;49.534;6.378;2024-03-22T05:34:16;8.50;99.90
53776;DHT22;44276;49.534;6.378;2024-03-22T05:36:44;8.60;99.90
53776;DHT22;44276;49.534;6.378;2024-03-22T05:39:12;8.70;99.90
53776;DHT22;44276;49.534;6.378;2024-03-22T05:41:41;8.70;99.90
53776;DHT22;44276;49.534;6.378;2024-03-22T05:44:08;8.70;99.90
53776;DHT22;44276;49.534;6.378;2024-03-22T05:46:35;8.80;99.90
53776;DHT22;44276;49.534;6.378;2024-03-22T05:49:02;8.80;99.90
53776;DHT22;44276;49.534;6.378;2024-03-22T05:51:30;8.80;99.90
53776;DHT22;44276;49.534;6.378;2024-03-22T05:53:57;8.80;99.90
53776;DHT22;44276;49.534;6.378;2024-03-22T05:56:25;8.90;99.90
53776;DHT22;44276;49.534;6.378;2024-03-22T05:58:51;8.90;99.90
53776;DHT22;44276;49.534;6.378;2024-03-22T06:01:19;8.90;99.90
53776;DHT22;44276;49.534;6.378;2024-03-22T06:03:47;9.00;99.90
53776;DHT22;44276;49.534;6.378;2024-03-22T06:06:15;9.00;99.90
53776;DHT22;44276;49.534;6.378;2024-03-22T06:08:43;9.20;99.90
53776;DHT22;44276;49.534;6.378;2024-03-22T06:11:11;9.20;99.90
53776;DHT22;44276;49.534;6.378;2024-03-22T06:13:37;9.30;99.90
53776;DHT22;44276;49.534;6.378;2024-03-22T06:16:05;9.40;99.90
53776;DHT22;44276;49.534;6.378;2024-03-22T06:18:32;9.40;99.90
53776;DHT22;44276;49.534;6.378;2024-03-22T06:20:59;9.50;99.90
53776;DHT22;44276;49.534;6.378;2024-03-22T06:23:26;9.50;99.90
53776;DHT22;44276;49.534;6.378;2024-03-22T06:25:55;9.60;99.90
53776;DHT22;44276;49.534;6.378;2024-03-22T06:28:21;9.70;99.90
53776;DHT22;44276;49.534;6.378;2024-03-22T06:30:49;9.70;99.90
53776;DHT22;44276;49.534;6.378;2024-03-22T06:33:16;9.80;99.90
53776;DHT22;44276;49.534;6.378;2024-03-22T06:35:45;10.00;99.90
53776;DHT22;44276;49.534;6.378;2024-03-22T06:38:12;10.20;99.90
53776;DHT22;44276;49.534;6.378;2024-03-22T06:40:40;10.30;99.90
53776;DHT22;44276;49.534;6.378;2024-03-22T06:43:08;10.40;99.90
53776;DHT22;44276;49.534;6.378;2024-03-22T06:45:36;10.50;99.90
53776;DHT22;44276;49.534;6.378;2024-03-22T06:48:02;10.60;99.90
53776;DHT22;44276;49.534;6.378;2024-03-22T06:50:30;10.70;99.90
53776;DHT22;44276;49.534;6.378;2024-03-22T06:52:57;10.90;99.90
53776;DHT22;44276;49.534;6.378;2024-03-22T06:55:24;11.00;99.90
53776;DHT22;44276;49.534;6.378;2024-03-22T06:57:51;11.20;99.90
53776;DHT22;44276;49.534;6.378;2024-03-22T07:00:20;11.50;99.90
53776;DHT22;44276;49.534;6.378;2024-03-22T07:02:47;11.70;99.90
53776;DHT22;44276;49.534;6.378;2024-03-22T07:05:15;11.90;99.90
53776;DHT22;44276;49.534;6.378;2024-03-22T07:07:41;12.00;99.90
53776;DHT22;44276;49.534;6.378;2024-03-22T07:10:09;12.00;99.90
53776;DHT22;44276;49.534;6.378;2024-03-22T07:12:36;11.90;99.90
53776;DHT22;44276;49.534;6.378;2024-03-22T07:15:04;11.80;99.90
53776;DHT22;44276;49.534;6.378;2024-03-22T07:17:33;11.70;99.90
53776;DHT22;44276;49.534;6.378;2024-03-22T07:20:00;11.70;99.90
53776;DHT22;44276;49.534;6.378;2024-03-22T07:22:27;11.70;99.90
53776;DHT22;44276;49.534;6.378;2024-03-22T07:24:55;11.80;99.90
53776;DHT22;44276;49.534;6.378;2024-03-22T07:27:22;11.80;99.90
53776;DHT22;44276;49.534;6.378;2024-03-22T07:29:49;12.00;99.90
53776;DHT22;44276;49.534;6.378;2024-03-22T07:32:15;12.20;99.90
53776;DHT22;44276;49.534;6.378;2024-03-22T07:34:46;12.30;99.90
53776;DHT22;44276;49.534;6.378;2024-03-22T07:37:12;12.60;99.90
53776;DHT22;44276;49.534;6.378;2024-03-22T07:39:40;12.80;99.90
53776;DHT22;44276;49.534;6.378;2024-03-22T07:42:07;13.20;99.90
53776;DHT22;44276;49.534;6.378;2024-03-22T07:44:34;13.50;99.90
53776;DHT22;44276;49.534;6.378;2024-03-22T07:47:00;13.80;99.90
53776;DHT22;44276;49.534;6.378;2024-03-22T07:49:28;14.00;99.90
53776;DHT22;44276;49.534;6.378;2024-03-22T07:51:55;14.10;99.90
53776;DHT22;44276;49.534;6.378;2024-03-22T07:54:23;14.20;99.90
53776;DHT22;44276;49.534;6.378;2024-03-22T07:56:49;14.30;99.90
53776;DHT22;44276;49.534;6.378;2024-03-22T07:59:16;14.20;99.90
53776;DHT22;44276;49.534;6.378;2024-03-22T08:01:42;14.20;99.90
53776;DHT22;44276;49.534;6.378;2024-03-22T08:04:10;14.10;99.90
53776;DHT22;44276;49.534;6.378;2024-03-22T08:06:36;14.10;99.90
53776;DHT22;44276;49.534;6.378;2024-03-22T08:09:05;14.10;99.90
53776;DHT22;44276;49.534;6.378;2024-03-22T08:11:31;14.30;99.90
53776;DHT22;44276;49.534;6.378;2024-03-22T08:13:58;14.50;99.90
53776;DHT22;44276;49.534;6.378;2024-03-22T08:16:29;14.80;99.90
53776;DHT22;44276;49.534;6.378;2024-03-22T08:18:56;14.90;99.90
53776;DHT22;44276;49.534;6.378;2024-03-22T08:21:23;15.10;99.90
53776;DHT22;44276;49.534;6.378;2024-03-22T08:23:51;15.30;99.90
53776;DHT22;44276;49.534;6.378;2024-03-22T08:26:19;15.40;99.90
53776;DHT22;44276;49.534;6.378;2024-03-22T08:28:47;15.40;99.90
53776;DHT22;44276;49.534;6.378;2024-03-22T08:31:14;15.60;99.90
53776;DHT22;44276;49.534;6.378;2024-03-22T08:33:42;15.60;99.90
53776;DHT22;44276;49.534;6.378;2024-03-22T08:36:08;15.50;99.90
53776;DHT22;44276;49.534;6.378;2024-03-22T08:38:36;15.50;99.90
53776;DHT22;44276;49.534;6.378;2024-03-22T08:41:02;15.60;99.90
53776;DHT22;44276;49.534;6.378;2024-03-22T08:43:31;15.80;99.90
53776;DHT22;44276;49.534;6.378;2024-03-22T08:45:57;16.00;99.90
53776;DHT22;44276;49.534;6.378;2024-03-22T08:48:24;16.40;99.90
53776;DHT22;44276;49.534;6.378;2024-03-22T08:50:51;17.20;95.10
53776;DHT22;44276;49.534;6.378;2024-03-22T08:53:18;17.90;79.40
53776;DHT22;44276;49.534;6.378;2024-03-22T08:55:48;18.40;72.90
53776;DHT22;44276;49.534;6.378;2024-03-22T08:58:17;19.20;61.90
53776;DHT22;44276;49.534;6.378;2024-03-22T09:00:45;19.80;55.80
53776;DHT22;44276;49.534;6.378;2024-03-22T09:03:12;19.30;54.50
53776;DHT22;44276;49.534;6.378;2024-03-22T09:05:40;18.90;55.70
53776;DHT22;44276;49.534;6.378;2024-03-22T09:08:08;18.90;56.00
53776;DHT22;44276;49.534;6.378;2024-03-22T09:10:34;18.70;57.00
53776;DHT22;44276;49.534;6.378;2024-03-22T09:13:02;18.60;55.80
53776;DHT22;44276;49.534;6.378;2024-03-22T09:15:29;18.80;53.40
53776;DHT22;44276;49.534;6.378;2024-03-22T09:17:58;19.50;50.90
53776;DHT22;44276;49.534;6.378;2024-03-22T09:20:24;20.00;47.30
53776;DHT22;44276;49.534;6.378;2024-03-22T09:22:52;20.50;44.40
53776;DHT22;44276;49.534;6.378;2024-03-22T09:25:19;19.80;44.50
53776;DHT22;44276;49.534;6.378;2024-03-22T09:27:46;19.20;46.90
53776;DHT22;44276;49.534;6.378;2024-03-22T09:30:13;19.10;48.90
53776;DHT22;44276;49.534;6.378;2024-03-22T09:32:41;19.10;48.70
53776;DHT22;44276;49.534;6.378;2024-03-22T09:35:10;19.30;47.10
53776;DHT22;44276;49.534;6.378;2024-03-22T09:37:40;19.70;46.10
53776;DHT22;44276;49.534;6.378;2024-03-22T09:40:07;20.50;45.30
53776;DHT22;44276;49.534;6.378;2024-03-22T09:42:38;21.10;39.10
53776;DHT22;44276;49.534;6.378;2024-03-22T09:45:08;21.70;37.10
53776;DHT22;44276;49.534;6.378;2024-03-22T09:47:37;22.00;35.90
53776;DHT22;44276;49.534;6.378;2024-03-22T09:50:07;22.10;35.00
53776;DHT22;44276;49.534;6.378;2024-03-22T09:52:38;22.50;34.30
53776;DHT22;44276;49.534;6.378;2024-03-22T09:55:07;22.30;33.60
53776;DHT22;44276;49.534;6.378;2024-03-22T09:57:38;21.00;37.20
53776;DHT22;44276;49.534;6.378;2024-03-22T10:00:07;20.10;40.70
53776;DHT22;44276;49.534;6.378;2024-03-22T10:02:36;19.40;42.80
53776;DHT22;44276;49.534;6.378;2024-03-22T10:05:04;19.40;48.80
53776;DHT22;44276;49.534;6.378;2024-03-22T10:07:36;19.10;47.80
53776;DHT22;44276;49.534;6.378;2024-03-22T10:10:03;18.90;48.50
53776;DHT22;44276;49.534;6.378;2024-03-22T10:12:31;18.60;49.70
53776;DHT22;44276;49.534;6.378;2024-03-22T10:14:58;18.60;51.70
53776;DHT22;44276;49.534;6.378;2024-03-22T10:17:26;18.50;50.20
53776;DHT22;44276;49.534;6.378;2024-03-22T10:19:54;18.50;54.30
53776;DHT22;44276;49.534;6.378;2024-03-22T10:22:23;18.50;55.00
53776;DHT22;44276;49.534;6.378;2024-03-22T10:24:52;18.60;54.00
53776;DHT22;44276;49.534;6.378;2024-03-22T10:27:19;18.60;52.90
53776;DHT22;44276;49.534;6.378;2024-03-22T10:29:46;18.50;54.90
53776;DHT22;44276;49.534;6.378;2024-03-22T10:32:16;18.60;59.00
53776;DHT22;44276;49.534;6.378;2024-03-22T10:34:42;18.60;54.60
53776;DHT22;44276;49.534;6.378;2024-03-22T10:37:14;18.70;55.50
53776;DHT22;44276;49.534;6.378;2024-03-22T10:39:42;18.70;53.10
53776;DHT22;44276;49.534;6.378;2024-03-22T10:42:12;18.70;56.50
53776;DHT22;44276;49.534;6.378;2024-03-22T10:44:40;18.90;53.50
53776;DHT22;44276;49.534;6.378;2024-03-22T10:47:09;19.10;54.20
53776;DHT22;44276;49.534;6.378;2024-03-22T10:49:38;19.20;48.60
53776;DHT22;44276;49.534;6.378;2024-03-22T10:52:09;19.00;47.20
53776;DHT22;44276;49.534;6.378;2024-03-22T10:54:45;18.70;48.60
53776;DHT22;44276;49.534;6.378;2024-03-22T10:57:21;18.60;48.50
53776;DHT22;44276;49.534;6.378;2024-03-22T10:59:54;18.80;51.30
53776;DHT22;44276;49.534;6.378;2024-03-22T11:02:24;18.60;48.10
53776;DHT22;44276;49.534;6.378;2024-03-22T11:04:56;18.50;48.70
53776;DHT22;44276;49.534;6.378;2024-03-22T11:07:29;18.50;51.00
53776;DHT22;44276;49.534;6.378;2024-03-22T11:09:57;18.70;49.70
53776;DHT22;44276;49.534;6.378;2024-03-22T11:12:37;19.10;46.40
53776;DHT22;44276;49.534;6.378;2024-03-22T11:15:04;19.00;47.20
53776;DHT22;44276;49.534;6.378;2024-03-22T11:17:32;19.20;48.50
53776;DHT22;44276;49.534;6.378;2024-03-22T11:19:58;19.60;47.70
53776;DHT22;44276;49.534;6.378;2024-03-22T11:22:26;19.70;48.70
53776;DHT22;44276;49.534;6.378;2024-03-22T11:24:52;19.80;47.00
53776;DHT22;44276;49.534;6.378;2024-03-22T11:27:20;19.60;43.20
53776;DHT22;44276;49.534;6.378;2024-03-22T11:29:48;19.30;45.60
53776;DHT22;44276;49.534;6.378;2024-03-22T11:32:17;19.50;50.90
53776;DHT22;44276;49.534;6.378;2024-03-22T11:34:46;19.20;47.20
53776;DHT22;44276;49.534;6.378;2024-03-22T11:37:14;19.00;48.80
53776;DHT22;44276;49.534;6.378;2024-03-22T11:39:40;18.50;51.40
53776;DHT22;44276;49.534;6.378;2024-03-22T11:42:07;18.30;54.50
53776;DHT22;44276;49.534;6.378;2024-03-22T11:44:37;18.20;56.60
53776;DHT22;44276;49.534;6.378;2024-03-22T11:47:08;18.30;67.00
53776;DHT22;44276;49.534;6.378;2024-03-22T11:49:35;18.20;55.00
53776;DHT22;44276;49.534;6.378;2024-03-22T11:52:03;18.20;58.70
53776;DHT22;44276;49.534;6.378;2024-03-22T11:54:30;18.30;61.00
53776;DHT22;44276;49.534;6.378;2024-03-22T11:56:57;18.30;60.00
53776;DHT22;44276;49.534;6.378;2024-03-22T11:59:23;18.10;59.50
53776;DHT22;44276;49.534;6.378;2024-03-22T12:01:51;17.90;58.80
53776;DHT22;44276;49.534;6.378;2024-03-22T12:04:18;18.00;62.40
53776;DHT22;44276;49.534;6.378;2024-03-22T12:06:46;18.10;64.50
53776;DHT22;44276;49.534;6.378;2024-03-22T12:09:13;18.10;67.70
53776;DHT22;44276;49.534;6.378;2024-03-22T12:11:40;18.10;62.50
53776;DHT22;44276;49.534;6.378;2024-03-22T12:14:06;18.20;62.50
53776;DHT22;44276;49.534;6.378;2024-03-22T12:16:34;18.50;63.10
53776;DHT22;44276;49.534;6.378;2024-03-22T12:19:00;18.90;56.30
53776;DHT22;44276;49.534;6.378;2024-03-22T12:21:30;19.30;51.80
53776;DHT22;44276;49.534;6.378;2024-03-22T12:23:57;19.40;47.90
53776;DHT22;44276;49.534;6.378;2024-03-22T12:26:26;19.40;46.20
53776;DHT22;44276;49.534;6.378;2024-03-22T12:28:52;19.50;45.90
53776;DHT22;44276;49.534;6.378;2024-03-22T12:31:20;19.40;45.90
53776;DHT22;44276;49.534;6.378;2024-03-22T12:33:46;19.00;45.80
53776;DHT22;44276;49.534;6.378;2024-03-22T12:36:13;18.90;47.90
53776;DHT22;44276;49.534;6.378;2024-03-22T12:38:41;18.90;46.90
53776;DHT22;44276;49.534;6.378;2024-03-22T12:41:09;18.70;49.10
53776;DHT22;44276;49.534;6.378;2024-03-22T12:43:36;18.70;48.30
53776;DHT22;44276;49.534;6.378;2024-03-22T12:46:07;18.70;53.20
53776;DHT22;44276;49.534;6.378;2024-03-22T12:48:33;19.10;48.90
53776;DHT22;44276;49.534;6.378;2024-03-22T12:51:02;19.60;46.30
53776;DHT22;44276;49.534;6.378;2024-03-22T12:53:29;20.10;42.50
53776;DHT22;44276;49.534;6.378;2024-03-22T12:55:57;20.70;41.30
53776;DHT22;44276;49.534;6.378;2024-03-22T12:58:24;21.20;39.90
53776;DHT22;44276;49.534;6.378;2024-03-22T13:00:51;21.90;37.90
53776;DHT22;44276;49.534;6.378;2024-03-22T13:03:17;21.30;36.20
53776;DHT22;44276;49.534;6.378;2024-03-22T13:05:46;20.50;37.80
53776;DHT22;44276;49.534;6.378;2024-03-22T13:08:12;20.10;37.90
53776;DHT22;44276;49.534;6.378;2024-03-22T13:10:40;19.90;38.00
53776;DHT22;44276;49.534;6.378;2024-03-22T13:13:10;20.20;38.90
53776;DHT22;44276;49.534;6.378;2024-03-22T13:15:41;20.20;37.50
53776;DHT22;44276;49.534;6.378;2024-03-22T13:18:08;20.30;38.80
53776;DHT22;44276;49.534;6.378;2024-03-22T13:20:36;20.80;35.60
53776;DHT22;44276;49.534;6.378;2024-03-22T13:23:02;21.90;32.80
53776;DHT22;44276;49.534;6.378;2024-03-22T13:25:30;23.10;28.60
53776;DHT22;44276;49.534;6.378;2024-03-22T13:27:57;24.40;25.70
53776;DHT22;44276;49.534;6.378;2024-03-22T13:30:26;23.90;26.60
53776;DHT22;44276;49.534;6.378;2024-03-22T13:32:52;23.10;26.60
53776;DHT22;44276;49.534;6.378;2024-03-22T13:35:20;22.80;25.80
53776;DHT22;44276;49.534;6.378;2024-03-22T13:37:46;22.30;26.30
53776;DHT22;44276;49.534;6.378;2024-03-22T13:40:13;21.90;27.40
53776;DHT22;44276;49.534;6.378;2024-03-22T13:42:40;22.20;27.20
53776;DHT22;44276;49.534;6.378;2024-03-22T13:45:08;22.50;28.90
53776;DHT22;44276;49.534;6.378;2024-03-22T13:47:36;22.40;25.50
53776;DHT22;44276;49.534;6.378;2024-03-22T13:50:06;22.30;24.70
53776;DHT22;44276;49.534;6.378;2024-03-22T13:52:34;22.60;25.70
53776;DHT22;44276;49.534;6.378;2024-03-22T13:55:02;23.00;22.00
53776;DHT22;44276;49.534;6.378;2024-03-22T13:57:28;23.40;21.60
53776;DHT22;44276;49.534;6.378;2024-03-22T13:59:55;23.80;20.40
53776;DHT22;44276;49.534;6.378;2024-03-22T14:02:22;23.70;21.40
53776;DHT22;44276;49.534;6.378;2024-03-22T14:04:50;23.70;21.30
53776;DHT22;44276;49.534;6.378;2024-03-22T14:07:18;23.50;20.10
53776;DHT22;44276;49.534;6.378;2024-03-22T14:09:45;23.00;21.20
53776;DHT22;44276;49.534;6.378;2024-03-22T14:12:11;22.20;21.50
53776;DHT22;44276;49.534;6.378;2024-03-22T14:14:38;21.60;22.30
53776;DHT22;44276;49.534;6.378;2024-03-22T14:17:05;20.80;23.60
53776;DHT22;44276;49.534;6.378;2024-03-22T14:19:33;20.30;24.20
53776;DHT22;44276;49.534;6.378;2024-03-22T14:22:01;20.20;25.80
53776;DHT22;44276;49.534;6.378;2024-03-22T14:24:29;19.60;25.00
53776;DHT22;44276;49.534;6.378;2024-03-22T14:26:56;19.10;27.40
53776;DHT22;44276;49.534;6.378;2024-03-22T14:29:23;18.70;28.00
53776;DHT22;44276;49.534;6.378;2024-03-22T14:31:49;18.50;29.90
53776;DHT22;44276;49.534;6.378;2024-03-22T14:34:19;18.40;30.60
53776;DHT22;44276;49.534;6.378;2024-03-22T14:36:45;18.20;31.90
53776;DHT22;44276;49.534;6.378;2024-03-22T14:39:14;18.20;31.60
53776;DHT22;44276;49.534;6.378;2024-03-22T14:41:42;18.20;32.60
53776;DHT22;44276;49.534;6.378;2024-03-22T14:44:09;18.30;32.50
53776;DHT22;44276;49.534;6.378;2024-03-22T14:46:36;18.20;33.20
53776;DHT22;44276;49.534;6.378;2024-03-22T14:49:03;18.20;32.90
53776;DHT22;44276;49.534;6.378;2024-03-22T14:51:29;18.40;35.40
53776;DHT22;44276;49.534;6.378;2024-03-22T14:53:56;19.30;31.10
53776;DHT22;44276;49.534;6.378;2024-03-22T14:56:24;20.00;27.50
53776;DHT22;44276;49.534;6.378;2024-03-22T14:58:51;20.00;29.30
53776;DHT22;44276;49.534;6.378;2024-03-22T15:01:17;20.50;27.00
53776;DHT22;44276;49.534;6.378;2024-03-22T15:03:44;21.00;26.60
53776;DHT22;44276;49.534;6.378;2024-03-22T15:06:11;21.20;24.70
53776;DHT22;44276;49.534;6.378;2024-03-22T15:08:38;21.10;26.00
53776;DHT22;44276;49.534;6.378;2024-03-22T15:11:04;21.00;24.70
53776;DHT22;44276;49.534;6.378;2024-03-22T15:13:32;20.80;25.60
53776;DHT22;44276;49.534;6.378;2024-03-22T15:15:59;20.50;25.30
53776;DHT22;44276;49.534;6.378;2024-03-22T15:18:26;20.00;26.50
53776;DHT22;44276;49.534;6.378;2024-03-22T15:20:53;20.10;27.40
53776;DHT22;44276;49.534;6.378;2024-03-22T15:23:20;20.20;27.20
53776;DHT22;44276;49.534;6.378;2024-03-22T15:25:49;20.20;25.70
53776;DHT22;44276;49.534;6.378;2024-03-22T15:28:16;20.10;26.90
53776;DHT22;44276;49.534;6.378;2024-03-22T15:30:44;20.20;26.00
53776;DHT22;44276;49.534;6.378;2024-03-22T15:33:11;20.20;28.00
53776;DHT22;44276;49.534;6.378;2024-03-22T15:35:38;20.20;27.10
53776;DHT22;44276;49.534;6.378;2024-03-22T15:38:07;20.10;26.20